This is the latest recevied weather packets stored in our database for station/object EA1FLU-10. If no packets are shown the sender has not sent any weather packets the latest 10 day(s).
| Time | Temp. | Humidity | Pressure | Rain* | Wind** | Luminosity | Snow |
|---|---|---|---|---|---|---|---|
| 1777988747 | 20° C | 41% | 1018.2 hPa | - | - | - | - |
| 1777986947 | 20° C | 40% | 1018.4 hPa | - | - | - | - |
| 1777985147 | 21.11° C | 39% | 1018.2 hPa | - | - | - | - |
| 1777983349 | 20.56° C | 39% | 1018.4 hPa | - | - | - | - |
| 1777981547 | 22.22° C | 36% | 1018.1 hPa | - | - | - | - |
| 1777979747 | 21.11° C | 38% | 1018.5 hPa | - | - | - | - |
| 1777977947 | 21.67° C | 39% | 1018.5 hPa | - | - | - | - |
| 1777976147 | 20° C | 43% | 1018.8 hPa | - | - | - | - |
| 1777974347 | 19.44° C | 44% | 1018.7 hPa | - | - | - | - |
| 1777972547 | 18.33° C | 43% | 1018.6 hPa | - | - | - | - |
| 1777970747 | 18.33° C | 45% | 1018.7 hPa | - | - | - | - |
| 1777968947 | 17.78° C | 45% | 1018.7 hPa | - | - | - | - |
| 1777967147 | 17.78° C | 47% | 1018.7 hPa | - | - | - | - |
| 1777965349 | 16.67° C | 48% | 1018.8 hPa | - | - | - | - |
| 1777963546 | 16.11° C | 48% | 1018.9 hPa | - | - | - | - |
| 1777961746 | 15.56° C | 50% | 1018.8 hPa | - | - | - | - |
| 1777959945 | 15.56° C | 52% | 1018.7 hPa | - | - | - | - |
| 1777958145 | 13.33° C | 50% | 1018.6 hPa | - | - | - | - |
| 1777956346 | 13.33° C | 50% | 1018.8 hPa | - | - | - | - |
| 1777954545 | 13.89° C | 49% | 1018.7 hPa | - | - | - | - |
| 1777952745 | 13.89° C | 50% | 1019 hPa | - | - | - | - |
| 1777950945 | 14.44° C | 49% | 1019 hPa | - | - | - | - |
| 1777949145 | 14.44° C | 49% | 1019 hPa | - | - | - | - |
| 1777947345 | 15° C | 49% | 1018.9 hPa | - | - | - | - |
| 1777945546 | 15° C | 49% | 1019 hPa | - | - | - | - |
* Rain since midnight (hover to see other rain measurements)
** Current wind speed in m/s (hover to see current wind gust speed)